Time;durP1;ratioP1;P1;durP2;ratioP2;P2;SDS_P1;SDS_P2;PMS_P1;PMS_P2;Temp;Humidity;BMP_temperature;BMP_pressure;BME280_temperature;BME280_humidity;BME280_pressure;Samples;Min_cycle;Max_cycle;Signal;HPM_P1;HPM_P2
2023/12/20 00:01:25;;;;;;;9.48;2.03;;;5.80;99.90;;;;;;5066723;28;20071;-88
2023/12/20 00:03:51;;;;;;;12.82;2.05;;;5.80;99.90;;;;;;5100139;28;20031;-88
2023/12/20 00:06:16;;;;;;;9.85;2.13;;;5.80;99.90;;;;;;5083420;28;20096;-87
2023/12/20 00:08:42;;;;;;;15.90;2.25;;;5.80;99.90;;;;;;5051610;28;20037;-86
2023/12/20 00:11:08;;;;;;;7.70;2.20;;;5.70;99.90;;;;;;5114204;28;20142;-87
2023/12/20 00:13:34;;;;;;;9.60;2.25;;;5.70;99.90;;;;;;5052184;28;20036;-87
2023/12/20 00:15:59;;;;;;;10.02;2.33;;;5.90;99.90;;;;;;5071065;28;20044;-87
2023/12/20 00:18:25;;;;;;;10.60;2.28;;;5.70;99.90;;;;;;5083245;28;20266;-88
2023/12/20 00:20:51;;;;;;;8.55;2.00;;;5.60;99.90;;;;;;5041621;28;20048;-87
2023/12/20 00:23:16;;;;;;;11.07;1.92;;;5.70;99.90;;;;;;5057983;28;20381;-87
2023/12/20 00:25:42;;;;;;;11.65;2.10;;;5.60;99.90;;;;;;5062005;28;20285;-87
2023/12/20 00:28:08;;;;;;;13.98;2.47;;;5.60;99.90;;;;;;5068520;28;20093;-88
2023/12/20 00:30:34;;;;;;;13.35;2.38;;;5.70;99.90;;;;;;5054540;28;20055;-87
2023/12/20 00:32:59;;;;;;;8.10;2.35;;;5.70;99.90;;;;;;5064264;28;20032;-87
2023/12/20 00:35:25;;;;;;;6.57;1.80;;;5.60;99.90;;;;;;5052420;28;20154;-87
2023/12/20 00:37:51;;;;;;;12.85;2.15;;;5.60;99.90;;;;;;5068208;28;20064;-87
2023/12/20 00:40:17;;;;;;;11.27;2.45;;;5.60;99.90;;;;;;5034972;28;20028;-87
2023/12/20 00:42:42;;;;;;;13.60;2.03;;;5.60;99.90;;;;;;5054958;28;20095;-88
2023/12/20 00:45:08;;;;;;;10.40;2.38;;;5.60;99.90;;;;;;5068515;28;20044;-87
2023/12/20 00:47:34;;;;;;;11.23;2.45;;;5.60;99.90;;;;;;5074859;28;20043;-87
2023/12/20 00:50:00;;;;;;;10.52;2.50;;;5.60;99.90;;;;;;5066411;28;20131;-87
2023/12/20 00:52:25;;;;;;;14.35;3.10;;;5.60;99.90;;;;;;5056362;28;20074;-87
2023/12/20 00:54:52;;;;;;;12.20;2.63;;;5.70;99.90;;;;;;5060933;28;20178;-87
2023/12/20 00:57:17;;;;;;;10.77;2.53;;;5.70;99.90;;;;;;5057291;28;20067;-87
2023/12/20 00:59:43;;;;;;;8.68;2.13;;;5.70;99.90;;;;;;5102539;28;20096;-87
2023/12/20 01:02:09;;;;;;;9.65;2.58;;;5.70;99.90;;;;;;5062848;28;20051;-88
2023/12/20 01:04:35;;;;;;;12.30;2.30;;;5.70;99.90;;;;;;5092041;28;20028;-87
2023/12/20 01:07:01;;;;;;;10.75;2.00;;;5.70;99.90;;;;;;5100707;28;20286;-87
2023/12/20 01:09:27;;;;;;;11.43;2.28;;;5.70;99.90;;;;;;5070267;28;20036;-87
2023/12/20 01:11:53;;;;;;;8.00;2.08;;;5.70;99.90;;;;;;5066364;28;20047;-87
2023/12/20 01:14:19;;;;;;;10.40;2.10;;;5.70;99.90;;;;;;5097650;28;20072;-87
2023/12/20 01:16:45;;;;;;;12.52;2.70;;;5.70;99.90;;;;;;5102837;28;20278;-87
2023/12/20 01:19:11;;;;;;;13.02;2.80;;;5.70;99.90;;;;;;5089747;28;20032;-88
2023/12/20 01:21:36;;;;;;;11.80;2.25;;;5.70;99.90;;;;;;5069513;28;20032;-87
2023/12/20 01:24:02;;;;;;;14.38;2.30;;;5.70;99.90;;;;;;5078253;28;20353;-87
2023/12/20 01:26:28;;;;;;;12.40;2.50;;;5.70;99.90;;;;;;5064574;28;20380;-87
2023/12/20 01:28:53;;;;;;;12.13;2.63;;;5.70;99.90;;;;;;5053705;28;20082;-87
2023/12/20 01:31:19;;;;;;;12.93;2.53;;;5.70;99.90;;;;;;5068933;28;20095;-87
2023/12/20 01:33:45;;;;;;;14.65;3.30;;;5.70;99.90;;;;;;5069645;28;20038;-87
2023/12/20 01:36:11;;;;;;;14.55;2.70;;;5.70;99.90;;;;;;5102870;28;20036;-87
2023/12/20 01:38:37;;;;;;;12.65;2.50;;;5.80;99.90;;;;;;5103302;28;20133;-87
2023/12/20 01:41:04;;;;;;;10.32;2.28;;;5.80;99.90;;;;;;5069073;28;20428;-87
2023/12/20 01:43:30;;;;;;;14.18;2.35;;;5.80;99.90;;;;;;5073614;28;20040;-87
2023/12/20 01:46:00;;;;;;;12.25;2.58;;;5.90;99.90;;;;;;5053399;28;20122;-87
2023/12/20 01:48:27;;;;;;;13.38;2.75;;;5.90;99.90;;;;;;5073572;28;20045;-86
2023/12/20 01:50:54;;;;;;;10.95;2.35;;;6.00;99.90;;;;;;5055605;28;20261;-87
2023/12/20 01:53:21;;;;;;;12.50;3.17;;;7.10;99.90;;;;;;5069466;28;20040;-87
2023/12/20 01:55:50;;;;;;;14.05;3.20;;;6.00;99.90;;;;;;5081923;28;20034;-87
2023/12/20 01:58:17;;;;;;;17.23;3.30;;;6.10;99.90;;;;;;5069430;28;20297;-87
2023/12/20 02:00:42;;;;;;;12.43;2.72;;;6.10;99.90;;;;;;5101951;28;20058;-87
2023/12/20 02:03:09;;;;;;;9.10;2.40;;;6.00;99.90;;;;;;5050533;28;20285;-87
2023/12/20 02:05:36;;;;;;;12.20;2.50;;;6.00;99.90;;;;;;5047528;28;20024;-87
2023/12/20 02:08:02;;;;;;;15.65;2.65;;;6.00;99.90;;;;;;5080188;28;20092;-87
2023/12/20 02:10:29;;;;;;;11.30;2.30;;;6.00;99.90;;;;;;5083373;28;20249;-87
2023/12/20 02:12:54;;;;;;;10.35;2.28;;;6.00;99.90;;;;;;5049255;28;20147;-86
2023/12/20 02:15:20;;;;;;;9.15;2.42;;;6.10;99.90;;;;;;5082831;28;20024;-87
2023/12/20 02:17:48;;;;;;;12.57;2.92;;;6.10;99.90;;;;;;5066277;28;20034;-87
2023/12/20 02:20:14;;;;;;;9.38;2.42;;;6.10;99.90;;;;;;5082122;28;20040;-87
2023/12/20 02:22:40;;;;;;;10.38;2.17;;;6.00;99.90;;;;;;5064648;28;20056;-86
2023/12/20 02:25:06;;;;;;;12.50;2.45;;;6.00;99.90;;;;;;5046111;28;20073;-87
2023/12/20 02:27:31;;;;;;;11.10;2.40;;;6.00;99.90;;;;;;5080230;28;20089;-87
2023/12/20 02:29:57;;;;;;;9.88;2.30;;;6.00;99.90;;;;;;5065523;28;20198;-87
2023/12/20 02:32:27;;;;;;;12.05;2.70;;;6.10;99.90;;;;;;5065230;28;20217;-87
2023/12/20 02:34:53;;;;;;;12.85;2.83;;;5.90;99.90;;;;;;5063792;28;20035;-87
2023/12/20 02:37:19;;;;;;;13.57;3.00;;;5.90;99.90;;;;;;5061212;28;20265;-87
2023/12/20 02:39:45;;;;;;;12.88;2.72;;;5.90;99.90;;;;;;5064554;28;20020;-87
2023/12/20 02:42:10;;;;;;;9.43;2.38;;;5.90;99.90;;;;;;5048003;28;20053;-87
2023/12/20 02:44:36;;;;;;;12.27;3.00;;;5.90;99.90;;;;;;5080653;28;20028;-88
2023/12/20 02:47:02;;;;;;;11.30;2.25;;;5.90;99.90;;;;;;5063622;28;20043;-87
2023/12/20 02:49:28;;;;;;;18.42;2.95;;;5.90;99.90;;;;;;5065062;28;20023;-87
2023/12/20 02:51:54;;;;;;;15.63;3.40;;;6.00;99.90;;;;;;5048060;28;20319;-88
2023/12/20 02:54:19;;;;;;;14.75;3.10;;;6.00;99.90;;;;;;5081152;28;20043;-87
2023/12/20 02:56:45;;;;;;;13.18;2.83;;;6.00;99.90;;;;;;5048176;28;20220;-87
2023/12/20 02:59:11;;;;;;;11.68;2.63;;;6.10;99.90;;;;;;5094037;28;20059;-87
2023/12/20 03:01:42;;;;;;;9.82;2.55;;;6.40;99.90;;;;;;5078299;28;20422;-87
2023/12/20 03:04:08;;;;;;;10.65;2.88;;;6.10;99.90;;;;;;5078086;28;20352;-86
2023/12/20 03:06:34;;;;;;;13.35;3.28;;;6.10;99.90;;;;;;5078749;28;20064;-87
2023/12/20 03:08:59;;;;;;;14.05;2.90;;;6.10;99.90;;;;;;5048077;28;20036;-86
2023/12/20 03:11:28;;;;;;;14.75;3.20;;;6.10;99.90;;;;;;5063846;28;20070;-87
2023/12/20 03:13:57;;;;;;;15.30;3.42;;;6.00;99.90;;;;;;5046538;28;20028;-87
2023/12/20 03:16:23;;;;;;;15.88;3.22;;;6.00;99.90;;;;;;5080064;28;20035;-87
2023/12/20 03:18:49;;;;;;;14.82;2.85;;;6.00;99.90;;;;;;5080673;28;21716;-87
2023/12/20 03:21:15;;;;;;;15.25;2.92;;;6.00;99.90;;;;;;5094318;28;20128;-86
2023/12/20 03:23:41;;;;;;;18.52;3.25;;;6.00;99.90;;;;;;5042979;28;20152;-86
2023/12/20 03:26:08;;;;;;;15.65;3.80;;;6.00;99.90;;;;;;5060171;28;20024;-87
2023/12/20 03:28:34;;;;;;;17.35;3.40;;;6.00;99.90;;;;;;5076866;28;20027;-87
2023/12/20 03:31:00;;;;;;;14.38;3.08;;;6.00;99.90;;;;;;5062366;28;20047;-87
2023/12/20 03:33:26;;;;;;;14.90;3.25;;;6.10;99.90;;;;;;5064195;28;20112;-87
2023/12/20 03:35:51;;;;;;;18.60;3.60;;;6.10;99.90;;;;;;5029050;28;20293;-87
2023/12/20 03:38:17;;;;;;;13.50;3.13;;;6.20;99.90;;;;;;5078624;28;20054;-87
2023/12/20 03:40:43;;;;;;;18.05;3.45;;;6.20;99.90;;;;;;5062193;28;20043;-87
2023/12/20 03:43:09;;;;;;;15.93;4.75;;;6.20;99.90;;;;;;5082902;28;20045;-88
2023/12/20 03:45:34;;;;;;;14.60;3.40;;;6.30;99.90;;;;;;5083361;28;20039;-87
2023/12/20 03:48:00;;;;;;;14.43;3.78;;;6.30;99.90;;;;;;5075510;28;20032;-87
2023/12/20 03:50:27;;;;;;;14.60;3.30;;;6.80;99.90;;;;;;5083819;28;20028;-87
2023/12/20 03:52:53;;;;;;;20.42;3.85;;;6.30;99.90;;;;;;5100307;28;20039;-86
2023/12/20 03:55:18;;;;;;;21.95;4.75;;;6.30;99.90;;;;;;5051909;28;20034;-86
2023/12/20 03:57:44;;;;;;;15.95;3.38;;;6.20;99.90;;;;;;5083382;28;20042;-87
2023/12/20 04:00:11;;;;;;;16.38;3.78;;;6.20;99.90;;;;;;5083770;28;20024;-87
2023/12/20 04:02:41;;;;;;;17.85;3.92;;;6.20;99.90;;;;;;5080453;28;20036;-87
2023/12/20 04:05:08;;;;;;;15.18;3.45;;;6.20;99.90;;;;;;5056160;28;20107;-87
2023/12/20 04:07:34;;;;;;;17.30;3.35;;;6.20;99.90;;;;;;5093483;28;20062;-86
2023/12/20 04:10:00;;;;;;;16.60;3.85;;;6.50;99.90;;;;;;5047220;28;20073;-88
2023/12/20 04:12:28;;;;;;;20.95;4.20;;;6.20;99.90;;;;;;5090551;28;20051;-87
2023/12/20 04:14:54;;;;;;;21.58;3.58;;;6.20;99.90;;;;;;5083818;28;20024;-87
2023/12/20 04:17:20;;;;;;;16.30;3.30;;;6.20;99.90;;;;;;5099379;28;20283;-86
2023/12/20 04:19:46;;;;;;;20.15;3.63;;;6.20;99.90;;;;;;5083382;28;20117;-87
2023/12/20 04:22:11;;;;;;;18.95;4.53;;;6.20;99.90;;;;;;5083314;28;20051;-87
2023/12/20 04:24:37;;;;;;;22.77;4.15;;;6.40;99.90;;;;;;5083316;28;20174;-87
2023/12/20 04:27:03;;;;;;;18.48;3.45;;;6.20;99.90;;;;;;5072416;28;20360;-87
2023/12/20 04:29:29;;;;;;;17.15;3.83;;;6.20;99.90;;;;;;5071672;28;20032;-87
2023/12/20 04:31:55;;;;;;;15.20;3.63;;;6.30;99.90;;;;;;5066841;28;20102;-86
2023/12/20 04:34:22;;;;;;;17.75;3.65;;;6.20;99.90;;;;;;5066043;28;20273;-87
2023/12/20 04:36:47;;;;;;;15.95;3.60;;;6.30;99.90;;;;;;5055089;28;20096;-86
2023/12/20 04:39:14;;;;;;;14.13;3.45;;;6.30;99.90;;;;;;5035195;28;20075;-87
2023/12/20 04:41:40;;;;;;;15.15;3.88;;;6.30;99.90;;;;;;5051649;28;20099;-85
2023/12/20 04:44:06;;;;;;;16.98;4.30;;;6.30;99.90;;;;;;5034100;28;20043;-87
2023/12/20 04:46:32;;;;;;;15.30;3.53;;;6.40;99.90;;;;;;5070609;28;20101;-87
2023/12/20 04:48:58;;;;;;;20.08;3.65;;;6.40;99.90;;;;;;5077489;28;20032;-87
2023/12/20 04:51:24;;;;;;;16.80;3.67;;;6.50;99.90;;;;;;5082908;28;20081;-87
2023/12/20 04:53:49;;;;;;;15.13;4.05;;;6.40;99.90;;;;;;5050427;28;20270;-87
2023/12/20 04:56:15;;;;;;;18.02;3.58;;;6.50;99.90;;;;;;5070486;28;20092;-87
2023/12/20 04:58:42;;;;;;;17.25;3.63;;;6.50;99.90;;;;;;5050464;28;20078;-87
2023/12/20 05:01:09;;;;;;;16.95;3.10;;;6.50;99.90;;;;;;5064815;28;20099;-87
2023/12/20 05:03:35;;;;;;;20.23;3.83;;;6.60;99.90;;;;;;5067397;28;20235;-86
2023/12/20 05:06:01;;;;;;;20.05;4.18;;;6.50;99.90;;;;;;5066535;28;20043;-86
2023/12/20 05:08:26;;;;;;;15.75;4.38;;;6.60;99.90;;;;;;5066021;28;20040;-87
2023/12/20 05:10:54;;;;;;;17.08;3.45;;;6.60;99.90;;;;;;5078891;28;20027;-87
2023/12/20 05:13:20;;;;;;;16.73;3.78;;;6.70;99.90;;;;;;5074806;28;20094;-87
2023/12/20 05:15:46;;;;;;;16.77;3.47;;;6.70;99.90;;;;;;5083989;28;20051;-87
2023/12/20 05:18:12;;;;;;;15.85;3.28;;;6.90;99.90;;;;;;5073828;28;20067;-87
2023/12/20 05:20:38;;;;;;;16.42;3.83;;;6.70;99.90;;;;;;5072241;28;20023;-87
2023/12/20 05:23:04;;;;;;;19.42;3.92;;;6.70;99.90;;;;;;5067233;28;20043;-86
2023/12/20 05:25:30;;;;;;;14.88;3.40;;;6.80;99.90;;;;;;5053535;28;20286;-86
2023/12/20 05:27:56;;;;;;;17.05;3.85;;;6.80;99.90;;;;;;5048890;28;20032;-87
2023/12/20 05:30:22;;;;;;;16.15;4.43;;;6.80;99.90;;;;;;5090294;28;20038;-87
2023/12/20 05:32:47;;;;;;;14.27;3.67;;;6.80;99.90;;;;;;5042041;28;20043;-86
2023/12/20 05:35:15;;;;;;;17.30;3.83;;;6.80;99.90;;;;;;5061655;28;20539;-86
2023/12/20 05:37:41;;;;;;;16.63;4.13;;;6.90;99.90;;;;;;5067039;28;20120;-86
2023/12/20 05:40:10;;;;;;;16.65;3.83;;;7.20;99.90;;;;;;5033606;28;20116;-86
2023/12/20 05:42:36;;;;;;;17.15;3.45;;;6.90;99.90;;;;;;5057018;28;20067;-86
2023/12/20 05:45:02;;;;;;;15.07;3.40;;;6.90;99.90;;;;;;5078751;28;20098;-87
2023/12/20 05:47:28;;;;;;;18.13;3.70;;;6.90;99.90;;;;;;5035643;28;20032;-86
2023/12/20 05:49:54;;;;;;;14.57;3.42;;;7.00;99.90;;;;;;5041267;28;20033;-87
2023/12/20 05:52:20;;;;;;;17.85;3.83;;;6.90;99.90;;;;;;5067785;28;20047;-86
2023/12/20 05:54:45;;;;;;;18.02;3.70;;;7.00;99.90;;;;;;5072967;28;20032;-87
2023/12/20 05:57:11;;;;;;;15.10;3.67;;;7.00;99.90;;;;;;5036608;28;20093;-87
2023/12/20 05:59:37;;;;;;;14.13;3.13;;;7.00;99.90;;;;;;5037508;28;20047;-86
2023/12/20 06:02:04;;;;;;;17.27;4.07;;;7.00;99.90;;;;;;5045709;28;20053;-87
2023/12/20 06:04:30;;;;;;;16.40;3.75;;;7.00;99.90;;;;;;5066389;28;20040;-86
2023/12/20 06:06:56;;;;;;;15.43;3.78;;;7.00;99.90;;;;;;5044886;28;20037;-86
2023/12/20 06:09:21;;;;;;;17.67;4.05;;;7.40;99.90;;;;;;5040232;28;20040;-86
2023/12/20 06:11:47;;;;;;;17.95;4.10;;;7.00;99.90;;;;;;5027098;28;20067;-86
2023/12/20 06:14:13;;;;;;;15.07;3.72;;;7.00;99.90;;;;;;5045218;28;20111;-86
2023/12/20 06:16:38;;;;;;;22.92;4.25;;;7.00;99.90;;;;;;5058522;28;20082;-85
2023/12/20 06:19:04;;;;;;;16.73;3.45;;;7.00;99.90;;;;;;5064743;28;20032;-86
2023/12/20 06:21:30;;;;;;;15.18;3.72;;;7.00;99.90;;;;;;5063418;28;20159;-87
2023/12/20 06:23:56;;;;;;;17.30;4.03;;;7.00;99.90;;;;;;5043713;28;20074;-85
2023/12/20 06:26:21;;;;;;;16.38;3.65;;;7.00;99.90;;;;;;5063894;28;20021;-86
2023/12/20 06:28:47;;;;;;;18.77;4.20;;;7.00;99.90;;;;;;5024458;28;20033;-86
2023/12/20 06:31:13;;;;;;;17.35;3.20;;;7.10;99.90;;;;;;5056478;28;20052;-87
2023/12/20 06:33:41;;;;;;;18.00;4.25;;;7.10;99.90;;;;;;5041583;28;20426;-88
2023/12/20 06:36:07;;;;;;;13.35;3.50;;;7.10;99.90;;;;;;5040949;28;20059;-87
2023/12/20 06:38:32;;;;;;;19.85;4.05;;;7.10;99.90;;;;;;5038368;28;20044;-87
2023/12/20 06:40:59;;;;;;;17.42;4.55;;;7.10;99.90;;;;;;5040761;28;20056;-87
2023/12/20 06:43:25;;;;;;;20.38;4.30;;;7.10;99.90;;;;;;5058990;28;20075;-87
2023/12/20 06:45:50;;;;;;;16.63;3.40;;;7.10;99.90;;;;;;5058438;28;20132;-86
2023/12/20 06:48:16;;;;;;;19.65;4.18;;;7.10;99.90;;;;;;5059051;28;20029;-87
2023/12/20 06:50:42;;;;;;;20.88;3.55;;;7.10;99.90;;;;;;5039302;28;20044;-87
2023/12/20 06:53:08;;;;;;;18.83;4.10;;;7.10;99.90;;;;;;5036261;28;20117;-87
2023/12/20 06:55:36;;;;;;;13.27;3.83;;;7.10;99.90;;;;;;5035267;28;20113;-87
2023/12/20 06:58:02;;;;;;;16.38;2.92;;;7.10;99.90;;;;;;5056674;28;20529;-87
2023/12/20 07:00:28;;;;;;;18.20;3.80;;;7.20;99.90;;;;;;5025093;28;20050;-87
2023/12/20 07:02:54;;;;;;;15.60;3.92;;;7.20;99.90;;;;;;5071596;28;20097;-87
2023/12/20 07:05:20;;;;;;;18.00;4.50;;;7.20;99.90;;;;;;5070269;28;20036;-87
2023/12/20 07:07:46;;;;;;;19.35;4.47;;;7.20;99.90;;;;;;5050518;28;20039;-87
2023/12/20 07:10:13;;;;;;;14.88;3.42;;;7.20;99.90;;;;;;5076399;28;20032;-86
2023/12/20 07:12:39;;;;;;;19.75;4.35;;;7.20;99.90;;;;;;5059489;28;20064;-87
2023/12/20 07:15:07;;;;;;;13.95;3.35;;;7.30;99.90;;;;;;5078668;28;20041;-87
2023/12/20 07:17:34;;;;;;;15.02;3.47;;;7.30;99.90;;;;;;5061527;28;20141;-86
2023/12/20 07:20:03;;;;;;;20.73;4.18;;;7.30;99.90;;;;;;5109183;28;20050;-86
2023/12/20 07:22:33;;;;;;;15.88;3.70;;;7.40;99.90;;;;;;5072865;28;20089;-87
2023/12/20 07:24:59;;;;;;;13.55;3.25;;;7.40;99.90;;;;;;5045677;28;20037;-86
2023/12/20 07:27:26;;;;;;;16.40;4.85;;;7.40;99.90;;;;;;5043413;28;21209;-87
2023/12/20 07:29:51;;;;;;;14.88;3.58;;;7.40;99.90;;;;;;5043347;28;20024;-87
2023/12/20 07:32:17;;;;;;;19.05;3.50;;;7.50;99.90;;;;;;5062532;28;20078;-88
2023/12/20 07:34:43;;;;;;;19.00;3.40;;;7.50;99.90;;;;;;5067410;28;20040;-87
2023/12/20 07:37:11;;;;;;;14.15;3.67;;;7.50;99.90;;;;;;5078738;28;20268;-88
2023/12/20 07:39:39;;;;;;;13.20;3.00;;;7.50;99.90;;;;;;5063619;28;20254;-89
2023/12/20 07:42:05;;;;;;;18.98;3.72;;;7.50;99.90;;;;;;5061665;28;20040;-87
2023/12/20 07:44:31;;;;;;;13.20;3.28;;;7.50;99.90;;;;;;5062416;28;20044;-89
2023/12/20 07:46:57;;;;;;;15.65;3.92;;;7.50;99.90;;;;;;5078302;28;20098;-88
2023/12/20 07:49:24;;;;;;;18.77;5.18;;;7.60;99.90;;;;;;5080330;28;20052;-89
2023/12/20 07:51:49;;;;;;;16.92;3.97;;;7.60;99.90;;;;;;5071708;28;20221;-89
2023/12/20 07:54:16;;;;;;;13.50;3.45;;;7.60;99.90;;;;;;5092820;28;20032;-89
2023/12/20 07:56:41;;;;;;;16.98;3.33;;;7.70;99.90;;;;;;5081871;28;20080;-88
2023/12/20 07:59:07;;;;;;;18.52;3.45;;;8.00;99.90;;;;;;5079110;28;20209;-88
2023/12/20 08:01:33;;;;;;;17.63;3.78;;;7.70;99.90;;;;;;5065750;28;20071;-88
2023/12/20 08:03:59;;;;;;;16.88;3.65;;;7.70;99.90;;;;;;5066244;28;20028;-89
2023/12/20 08:06:25;;;;;;;13.52;3.58;;;7.70;99.90;;;;;;5053480;28;20024;-87
2023/12/20 08:08:50;;;;;;;16.50;3.47;;;7.70;99.90;;;;;;5073822;28;20119;-89
2023/12/20 08:11:16;;;;;;;14.25;3.97;;;7.70;99.90;;;;;;5077787;28;20399;-87
2023/12/20 08:13:42;;;;;;;15.73;3.78;;;7.70;99.90;;;;;;5062041;28;20078;-88
2023/12/20 08:16:08;;;;;;;16.80;2.92;;;7.70;99.90;;;;;;5063849;28;20065;-89
2023/12/20 08:18:33;;;;;;;12.77;3.40;;;7.80;99.90;;;;;;5057362;28;20047;-88
2023/12/20 08:21:00;;;;;;;15.45;3.35;;;7.80;99.90;;;;;;5075962;28;20034;-88
2023/12/20 08:23:26;;;;;;;15.73;3.42;;;7.80;99.90;;;;;;5090575;28;20223;-89
2023/12/20 08:25:51;;;;;;;12.82;3.35;;;7.80;99.90;;;;;;5064112;28;20099;-89
2023/12/20 08:28:17;;;;;;;15.40;3.58;;;7.80;99.90;;;;;;5065682;28;20284;-89
2023/12/20 08:30:43;;;;;;;14.55;3.20;;;7.80;99.90;;;;;;5049581;28;20118;-88
2023/12/20 08:33:12;;;;;;;17.40;3.58;;;7.90;99.90;;;;;;5098096;28;20070;-86
2023/12/20 08:35:39;;;;;;;17.05;3.42;;;7.90;99.90;;;;;;5051958;28;1150171;-87
2023/12/20 08:38:05;;;;;;;15.07;4.30;;;8.00;99.90;;;;;;5063395;28;20025;-88
2023/12/20 08:40:31;;;;;;;12.50;2.90;;;8.00;99.90;;;;;;5043980;28;20178;-89
2023/12/20 08:42:57;;;;;;;8.27;2.10;;;8.00;99.90;;;;;;5060741;28;20046;-89
2023/12/20 08:45:22;;;;;;;4.80;1.80;;;6.90;99.90;;;;;;5047816;28;20124;-90
2023/12/20 08:47:48;;;;;;;6.85;1.60;;;6.10;99.90;;;;;;5057507;28;20111;-89
2023/12/20 08:50:15;;;;;;;7.47;1.70;;;5.90;99.90;;;;;;5060716;28;20280;-90
2023/12/20 08:52:40;;;;;;;5.68;1.45;;;5.80;99.90;;;;;;5058993;28;20033;-90
2023/12/20 08:55:07;;;;;;;6.85;1.95;;;6.00;99.90;;;;;;5057836;28;20100;-90
2023/12/20 08:57:33;;;;;;;5.93;2.05;;;5.80;99.90;;;;;;5057893;28;20064;-88
2023/12/20 08:59:59;;;;;;;6.80;1.90;;;5.70;99.90;;;;;;5025793;28;20025;-89
2023/12/20 09:02:25;;;;;;;8.27;1.92;;;5.70;99.90;;;;;;5089889;28;20051;-89
2023/12/20 09:04:50;;;;;;;9.90;1.95;;;5.70;99.90;;;;;;5041160;28;20112;-89
2023/12/20 09:07:24;;;;;;;6.47;1.58;;;5.70;99.90;;;;;;5061881;28;20059;-88
2023/12/20 09:09:50;;;;;;;7.80;1.70;;;5.70;99.90;;;;;;5057485;28;20043;-89
2023/12/20 09:12:17;;;;;;;6.97;1.60;;;5.70;99.90;;;;;;5065003;28;20052;-89
2023/12/20 09:14:42;;;;;;;9.20;1.95;;;5.70;99.90;;;;;;5064459;28;20016;-88
2023/12/20 09:17:08;;;;;;;7.47;1.85;;;5.80;99.90;;;;;;5073962;28;20413;-88
2023/12/20 09:19:34;;;;;;;6.57;1.75;;;5.70;99.90;;;;;;5063586;28;20405;-89
2023/12/20 09:22:00;;;;;;;9.43;2.00;;;6.70;99.90;;;;;;5062490;28;20041;-88
2023/12/20 09:24:26;;;;;;;6.07;2.20;;;5.70;99.90;;;;;;5062589;28;20047;-89
2023/12/20 09:26:52;;;;;;;5.90;1.75;;;5.80;99.90;;;;;;5047805;28;20060;-88
2023/12/20 09:29:18;;;;;;;11.43;2.10;;;5.80;99.90;;;;;;5046737;28;20312;-88
2023/12/20 09:31:46;;;;;;;8.75;2.47;;;5.90;99.90;;;;;;5078948;28;20110;-88
2023/12/20 09:34:12;;;;;;;12.18;2.72;;;5.90;99.90;;;;;;5047706;28;20037;-87
2023/12/20 09:36:40;;;;;;;9.43;1.90;;;5.90;99.90;;;;;;5044830;28;20063;-87
2023/12/20 09:39:06;;;;;;;8.65;2.33;;;6.00;99.90;;;;;;5045693;28;20033;-88
2023/12/20 09:41:37;;;;;;;9.27;1.83;;;6.00;99.90;;;;;;5064254;28;20150;-88
2023/12/20 09:44:03;;;;;;;9.52;1.90;;;6.00;99.90;;;;;;5064967;28;20236;-88
2023/12/20 09:46:32;;;;;;;7.35;1.77;;;6.10;99.90;;;;;;5047358;28;20020;-88
2023/12/20 09:49:00;;;;;;;7.13;1.80;;;6.10;99.90;;;;;;5063518;28;20047;-88
2023/12/20 09:51:29;;;;;;;5.90;1.60;;;6.00;99.90;;;;;;5063107;28;20264;-88
2023/12/20 09:53:56;;;;;;;9.05;2.33;;;6.10;99.90;;;;;;5064516;28;20316;-88
2023/12/20 09:56:22;;;;;;;5.80;1.58;;;6.10;99.90;;;;;;5086926;28;20035;-89
2023/12/20 09:58:48;;;;;;;8.02;2.00;;;6.20;99.90;;;;;;5045281;28;20032;-88
2023/12/20 10:01:15;;;;;;;7.88;1.65;;;6.20;99.90;;;;;;5041723;28;20031;-89
2023/12/20 10:03:42;;;;;;;7.68;1.90;;;6.20;99.90;;;;;;5077470;28;20041;-89
2023/12/20 10:06:08;;;;;;;9.90;2.05;;;6.30;99.90;;;;;;5063005;28;20024;-88
2023/12/20 10:08:34;;;;;;;8.10;1.80;;;6.20;99.90;;;;;;5046470;28;20090;-88
2023/12/20 10:11:02;;;;;;;8.57;2.08;;;6.30;99.90;;;;;;5045158;28;20225;-89
2023/12/20 10:13:28;;;;;;;9.18;2.30;;;6.30;99.90;;;;;;5062691;28;20040;-89
2023/12/20 10:15:55;;;;;;;8.73;2.10;;;6.40;99.90;;;;;;5063824;28;20035;-88
2023/12/20 10:18:21;;;;;;;10.82;2.33;;;6.40;99.90;;;;;;5078365;28;20059;-89
2023/12/20 10:20:47;;;;;;;8.32;2.15;;;6.50;99.90;;;;;;5042131;28;20237;-88
2023/12/20 10:23:15;;;;;;;8.80;2.30;;;6.60;99.90;;;;;;5060869;28;20028;-89
2023/12/20 10:25:41;;;;;;;12.63;2.35;;;6.70;99.90;;;;;;5059861;28;20040;-88
2023/12/20 10:28:20;;;;;;;8.05;1.90;;;6.80;99.90;;;;;;5059791;28;20265;-89
2023/12/20 10:30:47;;;;;;;10.13;2.25;;;6.80;99.90;;;;;;5062219;28;20064;-89
2023/12/20 10:33:13;;;;;;;11.30;2.53;;;6.90;99.90;;;;;;5045514;28;20041;-89
2023/12/20 10:35:39;;;;;;;11.18;2.25;;;6.90;99.90;;;;;;5059320;28;20097;-89
2023/12/20 10:38:06;;;;;;;9.35;2.00;;;7.00;99.90;;;;;;5045025;28;20033;-89
2023/12/20 10:40:38;;;;;;;10.73;2.40;;;7.00;99.90;;;;;;5059946;28;20051;-88
2023/12/20 10:43:05;;;;;;;8.65;2.00;;;7.10;99.90;;;;;;5044260;28;20059;-89
2023/12/20 10:45:31;;;;;;;11.02;2.35;;;7.10;99.90;;;;;;5061991;28;20051;-89
2023/12/20 10:47:59;;;;;;;12.63;2.22;;;7.10;99.90;;;;;;5061041;28;20110;-89
2023/12/20 10:50:27;;;;;;;9.18;2.10;;;7.10;99.90;;;;;;5093150;28;20073;-88
2023/12/20 10:52:55;;;;;;;11.43;2.35;;;7.10;99.90;;;;;;5077005;28;20052;-89
2023/12/20 10:55:22;;;;;;;11.07;2.72;;;7.40;99.90;;;;;;5074180;28;20059;-89
2023/12/20 10:57:50;;;;;;;11.65;2.28;;;7.10;99.90;;;;;;5041891;28;20070;-89
2023/12/20 11:00:18;;;;;;;11.82;2.63;;;7.10;99.90;;;;;;5061451;28;20052;-89
2023/12/20 11:02:44;;;;;;;9.80;2.95;;;7.00;99.90;;;;;;5069362;28;20049;-89
2023/12/20 11:05:22;;;;;;;13.38;2.38;;;7.10;99.90;;;;;;5047565;28;20036;-89
2023/12/20 11:07:57;;;;;;;11.60;2.33;;;7.10;99.90;;;;;;5044938;28;20040;-88
2023/12/20 11:10:54;;;;;;;9.15;2.05;;;7.20;99.90;;;;;;5073952;28;20043;-87
2023/12/20 11:13:31;;;;;;;9.80;2.13;;;7.20;99.90;;;;;;5071393;28;20037;-89
2023/12/20 11:15:57;;;;;;;10.32;2.35;;;7.20;99.90;;;;;;5058183;28;20099;-89
2023/12/20 11:18:30;;;;;;;14.63;3.22;;;7.20;99.90;;;;;;5058697;28;20037;-88
2023/12/20 11:21:00;;;;;;;18.88;2.85;;;7.10;99.90;;;;;;5060241;28;20040;-88
2023/12/20 11:23:25;;;;;;;12.45;2.45;;;7.10;99.90;;;;;;5048019;28;20036;-88
2023/12/20 11:25:59;;;;;;;13.88;2.95;;;7.10;99.90;;;;;;5044325;28;20040;-88
2023/12/20 11:28:26;;;;;;;15.55;3.08;;;7.10;99.90;;;;;;5059161;28;20055;-88
2023/12/20 11:30:54;;;;;;;12.60;2.75;;;7.10;99.90;;;;;;5058246;28;20041;-88
2023/12/20 11:33:24;;;;;;;11.57;2.92;;;7.10;99.90;;;;;;5075730;28;20104;-88
2023/12/20 11:35:51;;;;;;;17.98;3.00;;;7.10;99.90;;;;;;5055954;28;20123;-89
2023/12/20 11:38:19;;;;;;;12.90;2.92;;;7.00;99.90;;;;;;5059573;28;20052;-89
2023/12/20 11:40:49;;;;;;;12.77;3.38;;;7.10;99.90;;;;;;5075590;28;20170;-89
2023/12/20 11:43:31;;;;;;;14.25;2.72;;;7.10;99.90;;;;;;5032963;28;20098;-88
2023/12/20 11:46:06;;;;;;;12.90;2.38;;;7.20;99.90;;;;;;5080362;28;20116;-88
2023/12/20 11:48:34;;;;;;;10.65;2.90;;;7.30;99.90;;;;;;5074730;28;20032;-89
2023/12/20 11:51:00;;;;;;;12.95;2.97;;;7.40;99.90;;;;;;5062980;28;20098;-89
2023/12/20 11:53:26;;;;;;;16.05;3.05;;;7.40;99.90;;;;;;5050639;28;20051;-87
2023/12/20 11:55:53;;;;;;;11.68;2.53;;;7.40;99.90;;;;;;5011691;28;20043;-88
2023/12/20 11:58:19;;;;;;;15.52;3.08;;;7.40;99.90;;;;;;5045585;28;20089;-88
2023/12/20 12:00:44;;;;;;;12.85;2.97;;;7.40;99.90;;;;;;5045748;28;20052;-89
2023/12/20 12:03:14;;;;;;;10.55;2.53;;;7.40;99.90;;;;;;5047936;28;20088;-88
2023/12/20 12:05:40;;;;;;;13.02;2.40;;;7.40;99.90;;;;;;5032645;28;20036;-89
2023/12/20 12:08:06;;;;;;;12.65;2.90;;;7.40;99.90;;;;;;5048207;28;20043;-89
2023/12/20 12:10:32;;;;;;;15.73;3.00;;;7.30;99.90;;;;;;5029578;28;20036;-89
2023/12/20 12:12:57;;;;;;;9.77;2.55;;;7.30;99.90;;;;;;5061793;28;20123;-89
2023/12/20 12:15:23;;;;;;;13.73;2.42;;;7.30;99.90;;;;;;5051358;28;20040;-89
2023/12/20 12:17:56;;;;;;;14.10;3.03;;;7.50;99.90;;;;;;5030134;28;20230;-88
2023/12/20 12:20:22;;;;;;;15.00;2.88;;;7.20;99.90;;;;;;5031245;28;20170;-89
2023/12/20 12:23:04;;;;;;;11.73;2.80;;;7.20;99.90;;;;;;5074101;28;20024;-88
2023/12/20 12:25:31;;;;;;;14.73;2.80;;;7.20;99.90;;;;;;5059832;28;20071;-88
2023/12/20 12:28:01;;;;;;;12.38;2.53;;;7.20;99.90;;;;;;5040773;28;20352;-88
2023/12/20 12:30:27;;;;;;;12.18;3.05;;;7.20;99.90;;;;;;5044062;28;20059;-88
2023/12/20 12:32:53;;;;;;;15.60;2.97;;;7.20;99.90;;;;;;5043757;28;20024;-88
2023/12/20 12:35:20;;;;;;;13.55;2.63;;;7.20;99.90;;;;;;5042900;28;20036;-89
2023/12/20 12:37:46;;;;;;;11.73;2.70;;;7.20;99.90;;;;;;5074069;28;20037;-87
2023/12/20 12:40:13;;;;;;;12.65;2.30;;;7.20;99.90;;;;;;5042481;28;20332;-87
2023/12/20 12:42:40;;;;;;;11.60;2.45;;;7.20;99.90;;;;;;5076169;28;20035;-87
2023/12/20 12:45:07;;;;;;;12.88;3.05;;;7.20;99.90;;;;;;5052608;28;20167;-88